createdAt,value
2023-05-02T00:01:32.155Z,8.20
2023-05-02T00:05:40.698Z,8.20
2023-05-02T00:09:47.038Z,8.20
2023-05-02T00:13:52.676Z,8.10
2023-05-02T00:17:56.949Z,8.10
2023-05-02T00:22:00.109Z,8.00
2023-05-02T00:26:05.012Z,7.90
2023-05-02T00:30:09.552Z,7.90
2023-05-02T00:34:13.726Z,7.80
2023-05-02T00:38:16.941Z,7.80
2023-05-02T00:42:21.745Z,7.70
2023-05-02T00:46:24.940Z,7.70
2023-05-02T00:50:50.167Z,7.70
2023-05-02T00:54:53.502Z,7.50
2023-05-02T00:59:01.136Z,7.50
2023-05-02T01:03:13.360Z,7.40
2023-05-02T01:07:34.694Z,7.40
2023-05-02T01:11:45.786Z,7.30
2023-05-02T01:15:54.511Z,7.20
2023-05-02T01:20:06.380Z,7.20
2023-05-02T01:24:26.358Z,7.20
2023-05-02T01:28:37.299Z,7.20
2023-05-02T01:32:45.948Z,7.20
2023-05-02T01:37:06.023Z,7.10
2023-05-02T01:41:10.854Z,7.10
2023-05-02T01:45:14.623Z,7.00
2023-05-02T01:49:23.316Z,7.00
2023-05-02T01:53:32.152Z,6.90
2023-05-02T01:57:37.931Z,6.90
2023-05-02T02:01:43.695Z,6.80
2023-05-02T02:05:57.007Z,6.70
2023-05-02T02:10:05.018Z,6.80
2023-05-02T02:14:14.506Z,6.80
2023-05-02T02:18:23.077Z,6.90
2023-05-02T02:22:33.986Z,6.90
2023-05-02T02:26:39.967Z,6.90
2023-05-02T02:30:44.194Z,6.80
2023-05-02T02:34:48.150Z,6.80
2023-05-02T02:39:00.993Z,6.80
2023-05-02T02:43:21.494Z,6.80
2023-05-02T02:47:32.020Z,6.70
2023-05-02T02:51:45.865Z,6.70
2023-05-02T02:55:58.953Z,6.70
2023-05-02T03:00:10.831Z,6.70
2023-05-02T03:04:17.410Z,6.70
2023-05-02T03:08:23.457Z,6.80
2023-05-02T03:12:27.883Z,6.70
2023-05-02T03:16:38.317Z,6.70
2023-05-02T03:20:44.039Z,6.70
2023-05-02T03:24:47.080Z,6.60
2023-05-02T03:28:51.703Z,6.60
2023-05-02T03:32:58.970Z,6.60
2023-05-02T03:37:01.997Z,6.50
2023-05-02T03:41:05.975Z,6.50
2023-05-02T03:45:11.608Z,6.40
2023-05-02T03:49:15.184Z,6.40
2023-05-02T03:53:22.967Z,6.40
2023-05-02T03:57:26.924Z,6.40
2023-05-02T04:01:31.719Z,6.40
2023-05-02T04:05:34.735Z,6.40
2023-05-02T04:09:37.809Z,6.40
2023-05-02T04:13:40.914Z,6.50
2023-05-02T04:17:46.624Z,6.50
2023-05-02T04:21:51.509Z,6.60
2023-05-02T04:25:57.930Z,6.70
2023-05-02T04:30:03.793Z,6.80
2023-05-02T04:34:10.736Z,6.90
2023-05-02T04:38:14.125Z,7.00
2023-05-02T04:42:17.139Z,7.10
2023-05-02T04:46:20.396Z,7.20
2023-05-02T04:50:24.798Z,7.30
2023-05-02T04:54:28.119Z,7.40
2023-05-02T04:58:35.181Z,7.60
2023-05-02T05:02:39.097Z,7.80
2023-05-02T05:06:49.576Z,7.90
2023-05-02T05:10:53.021Z,8.00
2023-05-02T05:14:56.035Z,8.20
2023-05-02T05:18:59.256Z,8.50
2023-05-02T05:23:03.776Z,8.70
2023-05-02T05:27:07.318Z,8.90
2023-05-02T05:31:11.394Z,9.10
2023-05-02T05:35:17.445Z,9.40
2023-05-02T05:39:28.585Z,9.50
2023-05-02T05:43:36.634Z,9.80
2023-05-02T05:47:41.142Z,9.90
2023-05-02T05:51:44.357Z,10.10
2023-05-02T05:55:50.726Z,10.20
2023-05-02T05:59:53.797Z,10.30
2023-05-02T06:03:57.206Z,10.40
2023-05-02T06:08:00.793Z,10.40
2023-05-02T06:12:05.384Z,10.50
2023-05-02T06:16:08.967Z,10.60
2023-05-02T06:20:18.632Z,10.70
2023-05-02T06:24:22.379Z,10.80
2023-05-02T06:28:27.132Z,11.10
2023-05-02T06:32:34.799Z,11.30
2023-05-02T06:36:42.268Z,11.60
2023-05-02T06:40:49.022Z,11.80
2023-05-02T06:44:54.149Z,12.10
2023-05-02T06:48:57.485Z,12.30
2023-05-02T06:53:03.031Z,12.50
2023-05-02T06:57:06.511Z,12.60
2023-05-02T07:01:17.185Z,12.90
2023-05-02T07:05:20.234Z,13.10
2023-05-02T07:09:28.557Z,13.50
2023-05-02T07:13:34.021Z,14.10
2023-05-02T07:17:38.641Z,14.50
2023-05-02T07:21:44.714Z,14.90
2023-05-02T07:25:49.010Z,15.30
2023-05-02T07:29:52.154Z,15.30
2023-05-02T07:33:59.230Z,15.50
2023-05-02T07:38:05.355Z,15.90
2023-05-02T07:42:08.980Z,16.20
2023-05-02T07:46:14.234Z,16.40
2023-05-02T07:50:21.452Z,16.50
2023-05-02T07:54:27.691Z,16.60
2023-05-02T07:58:33.908Z,16.70
2023-05-02T08:02:40.119Z,16.70
2023-05-02T08:06:45.769Z,16.70
2023-05-02T08:10:51.364Z,16.60
2023-05-02T08:14:54.636Z,16.70
2023-05-02T08:18:58.780Z,16.60
2023-05-02T08:23:04.857Z,16.60
2023-05-02T08:27:10.993Z,16.70
2023-05-02T08:31:16.477Z,16.80
2023-05-02T08:35:19.787Z,17.00
2023-05-02T08:39:24.254Z,17.20
2023-05-02T08:43:27.624Z,17.50
2023-05-02T08:47:34.351Z,17.70
2023-05-02T08:51:39.456Z,17.90
2023-05-02T08:55:46.296Z,18.20
2023-05-02T08:59:53.028Z,18.30
2023-05-02T09:03:59.774Z,18.10
2023-05-02T09:08:03.445Z,17.60
2023-05-02T09:12:07.995Z,17.30
2023-05-02T09:16:14.689Z,16.90
2023-05-02T09:20:21.370Z,16.70
2023-05-02T09:24:27.483Z,16.50
2023-05-02T09:28:46.083Z,16.50
2023-05-02T09:32:51.365Z,16.60
2023-05-02T09:36:55.080Z,16.70
2023-05-02T09:41:03.535Z,17.10
2023-05-02T09:45:09.442Z,17.20
2023-05-02T09:49:15.218Z,17.70
2023-05-02T09:53:18.646Z,18.60
2023-05-02T09:57:40.313Z,19.40
2023-05-02T10:01:44.844Z,20.30
2023-05-02T10:05:54.080Z,20.40
2023-05-02T10:10:03.676Z,20.40
2023-05-02T10:14:09.033Z,20.20
2023-05-02T10:18:19.559Z,19.60
2023-05-02T10:22:25.080Z,19.70
2023-05-02T10:26:29.364Z,19.90
2023-05-02T10:30:36.539Z,20.20
2023-05-02T10:34:42.807Z,20.20
2023-05-02T10:38:51.553Z,20.20
2023-05-02T10:42:55.836Z,20.50
2023-05-02T10:46:59.291Z,20.70
2023-05-02T10:51:04.255Z,20.70
2023-05-02T10:55:23.341Z,20.90
2023-05-02T10:59:35.723Z,21.40
2023-05-02T11:03:58.326Z,22.60
2023-05-02T11:08:33.638Z,23.00
2023-05-02T11:12:48.755Z,23.30
2023-05-02T11:17:12.236Z,22.80
2023-05-02T11:21:43.833Z,23.00
2023-05-02T11:25:51.697Z,23.30
2023-05-02T11:29:55.389Z,23.40
2023-05-02T11:33:58.754Z,23.40
2023-05-02T11:38:04.772Z,23.80
2023-05-02T11:42:09.355Z,23.40
2023-05-02T11:46:15.357Z,22.80
2023-05-02T11:50:19.509Z,23.20
2023-05-02T11:54:23.016Z,22.40
2023-05-02T11:58:31.243Z,22.10
2023-05-02T12:02:40.400Z,21.90
2023-05-02T12:06:56.786Z,22.10
2023-05-02T12:11:00.101Z,22.60
2023-05-02T12:15:12.688Z,22.70
2023-05-02T12:19:18.049Z,22.50
2023-05-02T12:23:22.190Z,22.10
2023-05-02T12:27:26.076Z,21.60
2023-05-02T12:31:32.394Z,21.50
2023-05-02T12:35:38.659Z,21.80
2023-05-02T12:39:43.024Z,22.00
2023-05-02T12:43:48.588Z,22.10
2023-05-02T12:47:57.480Z,22.30
2023-05-02T12:52:01.089Z,22.30
2023-05-02T12:56:06.079Z,22.30
2023-05-02T13:00:10.980Z,22.60
2023-05-02T13:04:15.721Z,22.60
2023-05-02T13:08:18.881Z,22.50
2023-05-02T13:12:23.546Z,22.80
2023-05-02T13:16:27.328Z,22.90
2023-05-02T13:20:34.873Z,22.60
2023-05-02T13:24:39.665Z,22.50
2023-05-02T13:28:42.805Z,22.70
2023-05-02T13:32:47.408Z,22.90
2023-05-02T13:36:52.142Z,23.30
2023-05-02T13:40:57.088Z,23.00
2023-05-02T13:45:00.532Z,23.40
2023-05-02T13:49:06.013Z,23.40
2023-05-02T13:53:11.492Z,24.00
2023-05-02T13:57:14.568Z,24.90
2023-05-02T14:01:17.891Z,25.30
2023-05-02T14:05:23.833Z,24.40
2023-05-02T14:09:28.323Z,23.80
2023-05-02T14:13:31.473Z,24.00
2023-05-02T14:17:34.536Z,24.10
2023-05-02T14:21:42.129Z,23.80
2023-05-02T14:25:51.312Z,23.60
2023-05-02T14:29:54.584Z,23.90
2023-05-02T14:33:57.725Z,24.20
2023-05-02T14:38:03.858Z,23.80
2023-05-02T14:42:08.344Z,22.90
2023-05-02T14:46:13.777Z,22.00
2023-05-02T14:50:19.916Z,21.50
2023-05-02T14:54:30.396Z,20.80
2023-05-02T14:58:38.667Z,19.50
2023-05-02T15:02:42.168Z,18.60
2023-05-02T15:06:48.332Z,17.90
2023-05-02T15:10:55.907Z,17.30
2023-05-02T15:15:00.398Z,16.70
2023-05-02T15:19:07.076Z,16.20
2023-05-02T15:23:12.590Z,15.60
2023-05-02T15:27:15.891Z,15.00
2023-05-02T15:31:20.351Z,14.80
2023-05-02T15:35:23.457Z,14.80
2023-05-02T15:39:30.576Z,14.90
2023-05-02T15:43:33.594Z,15.40
2023-05-02T15:47:38.184Z,15.90
2023-05-02T15:51:43.933Z,16.30
2023-05-02T15:55:49.967Z,16.50
2023-05-02T15:59:54.103Z,16.70
2023-05-02T16:03:58.603Z,17.10
2023-05-02T16:08:01.806Z,17.30
2023-05-02T16:12:11.555Z,17.70
2023-05-02T16:16:18.725Z,18.20
2023-05-02T16:20:23.349Z,18.50
2023-05-02T16:24:26.462Z,18.80
2023-05-02T16:28:33.828Z,19.20
2023-05-02T16:32:37.333Z,19.20
2023-05-02T16:36:44.107Z,19.40
2023-05-02T16:40:47.173Z,19.30
2023-05-02T16:44:51.309Z,19.40
2023-05-02T16:48:57.538Z,19.70
2023-05-02T16:53:02.128Z,19.20
2023-05-02T16:57:07.294Z,18.60
2023-05-02T17:01:10.658Z,18.50
2023-05-02T17:05:16.391Z,19.00
2023-05-02T17:09:23.135Z,19.30
2023-05-02T17:13:33.277Z,19.70
2023-05-02T17:17:37.377Z,19.90
2023-05-02T17:21:41.084Z,20.00
2023-05-02T17:25:46.809Z,20.00
2023-05-02T17:29:53.657Z,20.20
2023-05-02T17:33:57.179Z,20.30
2023-05-02T17:38:08.290Z,20.00
2023-05-02T17:42:15.334Z,19.30
2023-05-02T17:46:18.421Z,18.50
2023-05-02T17:50:21.733Z,17.80
2023-05-02T17:54:25.394Z,17.30
2023-05-02T17:58:31.984Z,16.90
2023-05-02T18:02:42.011Z,16.50
2023-05-02T18:06:47.892Z,16.10
2023-05-02T18:10:51.658Z,15.80
2023-05-02T18:14:58.908Z,15.40
2023-05-02T18:19:05.373Z,15.10
2023-05-02T18:23:10.324Z,14.70
2023-05-02T18:27:13.429Z,14.40
2023-05-02T18:31:19.329Z,14.00
2023-05-02T18:35:23.112Z,13.60
2023-05-02T18:39:27.649Z,13.30
2023-05-02T18:43:30.697Z,12.90
2023-05-02T18:47:37.944Z,12.70
2023-05-02T18:51:43.143Z,12.40
2023-05-02T18:55:47.176Z,12.20
2023-05-02T18:59:50.562Z,12.00
2023-05-02T19:04:00.560Z,11.80
2023-05-02T19:08:06.160Z,11.60
2023-05-02T19:12:09.524Z,11.50
2023-05-02T19:16:15.640Z,11.50
2023-05-02T19:20:25.263Z,11.50
2023-05-02T19:24:30.244Z,11.60
2023-05-02T19:28:37.547Z,11.80
2023-05-02T19:32:43.384Z,12.00
2023-05-02T19:36:48.159Z,12.20
2023-05-02T19:40:53.403Z,12.30
2023-05-02T19:44:56.718Z,12.40
2023-05-02T19:49:03.024Z,12.50
2023-05-02T19:53:08.626Z,12.50
2023-05-02T19:57:13.533Z,12.50
2023-05-02T20:01:17.985Z,12.50
2023-05-02T20:05:21.403Z,12.60
2023-05-02T20:09:28.238Z,12.60
2023-05-02T20:13:37.540Z,12.60
2023-05-02T20:17:42.146Z,12.60
2023-05-02T20:21:46.664Z,12.60
2023-05-02T20:25:55.124Z,12.60
2023-05-02T20:30:01.321Z,12.70
2023-05-02T20:34:08.426Z,12.70
2023-05-02T20:38:12.911Z,12.60
2023-05-02T20:42:23.158Z,12.60
2023-05-02T20:46:27.664Z,12.50
2023-05-02T20:50:33.867Z,12.50
2023-05-02T20:54:37.889Z,12.40
2023-05-02T20:58:43.157Z,12.50
2023-05-02T21:02:46.115Z,12.40
2023-05-02T21:06:49.047Z,12.40
2023-05-02T21:10:53.321Z,12.30
2023-05-02T21:15:02.293Z,12.30
2023-05-02T21:19:05.103Z,12.20
2023-05-02T21:23:11.257Z,12.10
2023-05-02T21:27:16.651Z,12.10
2023-05-02T21:31:25.919Z,12.00
2023-05-02T21:35:33.972Z,11.90
2023-05-02T21:39:41.497Z,11.80
2023-05-02T21:43:46.156Z,11.70
2023-05-02T21:47:50.426Z,11.60
2023-05-02T21:51:53.279Z,11.50
2023-05-02T21:55:56.273Z,11.50
2023-05-02T21:59:59.868Z,11.40
2023-05-02T22:04:04.208Z,11.40
2023-05-02T22:08:11.281Z,11.30
2023-05-02T22:12:17.135Z,11.20
2023-05-02T22:16:19.944Z,11.20
2023-05-02T22:20:28.040Z,11.10
2023-05-02T22:24:36.231Z,11.00
2023-05-02T22:28:41.108Z,10.90
2023-05-02T22:32:43.890Z,10.80
2023-05-02T22:36:48.035Z,10.80
2023-05-02T22:40:51.105Z,10.70
2023-05-02T22:44:55.494Z,10.70
2023-05-02T22:48:58.765Z,10.60
2023-05-02T22:53:16.092Z,10.60
2023-05-02T22:57:19.181Z,10.50
2023-05-02T23:01:22.048Z,10.40
2023-05-02T23:05:29.381Z,10.30
2023-05-02T23:09:33.520Z,10.30
2023-05-02T23:13:36.721Z,10.20
2023-05-02T23:17:40.995Z,10.10
2023-05-02T23:21:44.232Z,10.10
2023-05-02T23:25:48.935Z,10.00
2023-05-02T23:29:52.053Z,9.90
2023-05-02T23:33:56.419Z,9.90
2023-05-02T23:38:00.773Z,9.80
2023-05-02T23:42:05.215Z,9.80
2023-05-02T23:46:13.903Z,9.70
2023-05-02T23:50:19.069Z,9.60
2023-05-02T23:54:33.776Z,9.60
2023-05-02T23:58:38.350Z,9.50
